createdAt,value
2019-01-30T00:01:37.882Z,0.90
2019-01-30T00:04:06.544Z,0.90
2019-01-30T00:06:35.070Z,0.90
2019-01-30T00:09:05.108Z,0.90
2019-01-30T00:11:34.470Z,0.90
2019-01-30T00:14:02.975Z,0.90
2019-01-30T00:16:31.716Z,0.90
2019-01-30T00:19:00.435Z,0.90
2019-01-30T00:21:28.899Z,0.90
2019-01-30T00:23:58.139Z,0.90
2019-01-30T00:26:26.597Z,0.90
2019-01-30T00:28:55.327Z,0.90
2019-01-30T00:31:24.066Z,0.90
2019-01-30T00:33:52.511Z,0.90
2019-01-30T00:36:21.341Z,0.90
2019-01-30T00:38:50.105Z,0.90
2019-01-30T00:41:18.563Z,0.90
2019-01-30T00:44:07.687Z,0.90
2019-01-30T00:46:36.485Z,0.90
2019-01-30T00:49:05.330Z,0.90
2019-01-30T00:51:35.232Z,0.90
2019-01-30T00:54:03.810Z,0.90
2019-01-30T00:56:33.185Z,0.90
2019-01-30T00:59:01.735Z,0.80
2019-01-30T01:01:30.315Z,0.80
2019-01-30T01:03:58.826Z,0.80
2019-01-30T01:06:29.108Z,0.80
2019-01-30T01:08:57.561Z,0.80
2019-01-30T01:11:26.263Z,0.80
2019-01-30T01:13:56.281Z,0.80
2019-01-30T01:16:24.812Z,0.80
2019-01-30T01:18:53.575Z,0.80
2019-01-30T01:21:22.341Z,0.80
2019-01-30T01:23:51.705Z,0.80
2019-01-30T01:26:20.190Z,0.80
2019-01-30T01:28:48.835Z,0.80
2019-01-30T01:31:17.551Z,0.80
2019-01-30T01:33:46.326Z,0.70
2019-01-30T01:36:15.125Z,0.70
2019-01-30T01:38:43.931Z,0.70
2019-01-30T01:41:12.693Z,0.70
2019-01-30T01:43:43.307Z,0.70
2019-01-30T01:46:11.909Z,0.70
2019-01-30T01:48:40.487Z,0.70
2019-01-30T01:51:11.965Z,0.70
2019-01-30T01:53:40.696Z,0.80
2019-01-30T01:56:09.595Z,0.80
2019-01-30T01:58:38.225Z,0.80
2019-01-30T02:01:08.133Z,0.70
2019-01-30T02:03:36.857Z,0.80
2019-01-30T02:06:05.748Z,0.80
2019-01-30T02:08:34.593Z,0.80
2019-01-30T02:11:03.473Z,0.80
2019-01-30T02:13:32.309Z,0.80
2019-01-30T02:16:01.296Z,0.80
2019-01-30T02:18:30.043Z,0.80
2019-01-30T02:20:58.598Z,0.80
2019-01-30T02:23:27.409Z,0.80
2019-01-30T02:25:55.864Z,0.80
2019-01-30T02:28:24.580Z,0.80
2019-01-30T02:30:53.318Z,0.80
2019-01-30T02:33:22.085Z,0.80
2019-01-30T02:35:50.617Z,0.80
2019-01-30T02:38:19.467Z,0.80
2019-01-30T02:40:48.061Z,0.80
2019-01-30T02:43:16.837Z,0.80
2019-01-30T02:45:45.699Z,0.80
2019-01-30T02:48:14.472Z,0.80
2019-01-30T02:50:42.926Z,0.80
2019-01-30T02:53:11.769Z,0.80
2019-01-30T02:55:42.138Z,0.90
2019-01-30T02:58:10.862Z,0.80
2019-01-30T03:00:39.624Z,0.90
2019-01-30T03:03:08.372Z,0.90
2019-01-30T03:05:37.296Z,0.90
2019-01-30T03:08:05.994Z,0.80
2019-01-30T03:10:34.457Z,0.90
2019-01-30T03:13:02.899Z,0.80
2019-01-30T03:15:33.225Z,0.80
2019-01-30T03:18:05.045Z,0.80
2019-01-30T03:20:33.815Z,0.80
2019-01-30T03:23:02.317Z,0.80
2019-01-30T03:25:31.042Z,0.80
2019-01-30T03:27:59.805Z,0.80
2019-01-30T03:30:30.967Z,0.80
2019-01-30T03:33:01.305Z,0.80
2019-01-30T03:35:30.047Z,0.80
2019-01-30T03:37:58.575Z,0.80
2019-01-30T03:40:27.042Z,0.80
2019-01-30T03:42:55.501Z,0.80
2019-01-30T03:45:24.801Z,0.80
2019-01-30T03:47:53.671Z,0.80
2019-01-30T03:50:22.567Z,0.80
2019-01-30T03:52:51.495Z,0.80
2019-01-30T03:55:21.402Z,0.80
2019-01-30T03:57:50.357Z,0.80
2019-01-30T04:00:26.516Z,0.80
2019-01-30T04:02:55.144Z,0.80
2019-01-30T04:05:24.010Z,0.80
2019-01-30T04:07:52.665Z,0.80
2019-01-30T04:10:24.634Z,0.80
2019-01-30T04:12:53.444Z,0.80
2019-01-30T04:15:24.090Z,0.80
2019-01-30T04:17:52.904Z,0.80
2019-01-30T04:20:22.114Z,0.80
2019-01-30T04:22:50.682Z,0.80
2019-01-30T04:25:19.625Z,0.90
2019-01-30T04:27:48.747Z,0.90
2019-01-30T04:30:20.652Z,0.90
2019-01-30T04:32:49.193Z,0.90
2019-01-30T04:35:17.748Z,0.90
2019-01-30T04:37:46.276Z,0.90
2019-01-30T04:40:16.996Z,0.90
2019-01-30T04:42:45.588Z,0.90
2019-01-30T04:45:19.436Z,0.90
2019-01-30T04:47:48.252Z,0.90
2019-01-30T04:50:17.154Z,0.90
2019-01-30T04:52:45.759Z,0.90
2019-01-30T04:55:16.028Z,0.90
2019-01-30T04:57:44.742Z,0.90
2019-01-30T05:00:16.791Z,0.90
2019-01-30T05:02:45.274Z,0.90
2019-01-30T05:05:14.146Z,0.90
2019-01-30T05:07:42.989Z,0.90
2019-01-30T05:10:13.614Z,0.90
2019-01-30T05:12:43.797Z,0.90
2019-01-30T05:15:18.131Z,0.90
2019-01-30T05:17:46.932Z,0.90
2019-01-30T05:20:17.458Z,0.90
2019-01-30T05:22:46.074Z,0.90
2019-01-30T05:25:15.192Z,0.90
2019-01-30T05:27:43.826Z,0.90
2019-01-30T05:30:15.913Z,0.90
2019-01-30T05:32:44.460Z,0.90
2019-01-30T05:35:13.279Z,0.90
2019-01-30T05:37:41.822Z,0.90
2019-01-30T05:40:13.290Z,0.90
2019-01-30T05:42:41.854Z,0.90
2019-01-30T05:45:13.207Z,0.90
2019-01-30T05:47:42.014Z,0.80
2019-01-30T05:50:11.313Z,0.80
2019-01-30T05:52:40.144Z,0.90
2019-01-30T05:55:10.950Z,0.80
2019-01-30T05:57:39.505Z,0.80
2019-01-30T06:00:25.755Z,0.80
2019-01-30T06:02:54.562Z,0.90
2019-01-30T06:05:30.180Z,0.90
2019-01-30T06:07:59.800Z,0.90
2019-01-30T06:10:28.398Z,0.80
2019-01-30T06:12:58.582Z,0.90
2019-01-30T06:15:27.418Z,0.80
2019-01-30T06:17:56.223Z,0.80
2019-01-30T06:20:27.231Z,0.90
2019-01-30T06:22:56.860Z,0.90
2019-01-30T06:25:25.729Z,0.90
2019-01-30T06:27:54.612Z,0.90
2019-01-30T06:30:25.030Z,0.90
2019-01-30T06:32:55.135Z,0.90
2019-01-30T06:35:23.756Z,0.90
2019-01-30T06:37:52.433Z,0.90
2019-01-30T06:40:23.535Z,0.90
2019-01-30T06:42:52.000Z,0.90
2019-01-30T06:45:20.635Z,0.90
2019-01-30T06:47:49.096Z,0.90
2019-01-30T06:50:22.158Z,0.90
2019-01-30T06:52:50.625Z,1.00
2019-01-30T06:55:19.096Z,1.00
2019-01-30T06:57:47.877Z,1.00
2019-01-30T07:00:18.989Z,1.00
2019-01-30T07:02:47.770Z,1.00
2019-01-30T07:05:20.363Z,1.10
2019-01-30T07:07:48.939Z,1.10
2019-01-30T07:10:23.137Z,1.10
2019-01-30T07:12:52.133Z,1.20
2019-01-30T07:15:20.995Z,1.20
2019-01-30T07:17:49.851Z,1.20
2019-01-30T07:20:18.917Z,1.20
2019-01-30T07:22:47.829Z,1.20
2019-01-30T07:25:21.269Z,1.20
2019-01-30T07:27:51.029Z,1.20
2019-01-30T07:30:28.413Z,1.30
2019-01-30T07:32:57.107Z,1.30
2019-01-30T07:35:25.989Z,1.20
2019-01-30T07:37:54.853Z,1.20
2019-01-30T07:40:23.765Z,1.20
2019-01-30T07:42:52.595Z,1.20
2019-01-30T07:45:33.265Z,1.20
2019-01-30T07:48:01.795Z,1.20
2019-01-30T07:50:31.619Z,1.20
2019-01-30T07:53:00.193Z,1.10
2019-01-30T07:55:29.025Z,1.10
2019-01-30T07:57:59.437Z,1.10
2019-01-30T08:00:29.921Z,1.10
2019-01-30T08:03:04.265Z,1.10
2019-01-30T08:05:32.917Z,1.10
2019-01-30T08:08:01.696Z,1.20
2019-01-30T08:10:30.631Z,1.20
2019-01-30T08:12:59.675Z,1.20
2019-01-30T08:15:28.548Z,1.30
2019-01-30T08:17:57.374Z,1.30
2019-01-30T08:20:25.865Z,1.30
2019-01-30T08:22:54.796Z,1.40
2019-01-30T08:25:26.259Z,1.40
2019-01-30T08:27:54.943Z,1.50
2019-01-30T08:30:49.749Z,1.50
2019-01-30T08:33:08.130Z,1.50
2019-01-30T08:35:36.908Z,1.60
2019-01-30T08:38:28.680Z,1.60
2019-01-30T08:40:59.937Z,1.70
2019-01-30T08:43:28.929Z,1.70
2019-01-30T08:45:57.541Z,1.70
2019-01-30T08:48:28.551Z,1.70
2019-01-30T08:50:56.667Z,1.70
2019-01-30T08:53:28.762Z,1.70
2019-01-30T08:55:57.701Z,1.80
2019-01-30T08:58:26.402Z,1.80
2019-01-30T09:00:54.978Z,1.90
2019-01-30T09:03:23.755Z,1.90
2019-01-30T09:05:52.319Z,2.00
2019-01-30T09:08:20.906Z,2.00
2019-01-30T09:10:49.795Z,2.10
2019-01-30T09:13:18.324Z,2.10
2019-01-30T09:15:47.149Z,2.10
2019-01-30T09:18:15.979Z,2.20
2019-01-30T09:20:44.830Z,2.10
2019-01-30T09:23:14.118Z,2.20
2019-01-30T09:25:42.599Z,2.20
2019-01-30T09:28:12.031Z,2.20
2019-01-30T09:30:40.598Z,2.20
2019-01-30T09:33:09.697Z,2.30
2019-01-30T09:35:38.920Z,2.30
2019-01-30T09:38:14.999Z,2.30
2019-01-30T09:40:43.820Z,2.30
2019-01-30T09:43:12.615Z,2.30
2019-01-30T09:45:42.322Z,2.40
2019-01-30T09:48:10.858Z,2.50
2019-01-30T09:50:39.827Z,2.60
2019-01-30T09:53:08.504Z,2.60
2019-01-30T09:55:37.389Z,2.60
2019-01-30T09:58:06.169Z,2.60
2019-01-30T10:00:38.960Z,2.60
2019-01-30T10:03:09.406Z,2.60
2019-01-30T10:05:38.798Z,2.70
2019-01-30T10:08:07.842Z,2.80
2019-01-30T10:10:42.364Z,2.90
2019-01-30T10:13:11.380Z,2.90
2019-01-30T10:15:49.594Z,2.90
2019-01-30T10:18:18.346Z,2.90
2019-01-30T10:20:47.760Z,2.90
2019-01-30T10:23:16.458Z,2.90
2019-01-30T10:25:45.308Z,2.80
2019-01-30T10:28:16.778Z,2.90
2019-01-30T10:30:48.771Z,2.90
2019-01-30T10:33:17.612Z,2.90
2019-01-30T10:35:46.554Z,3.00
2019-01-30T10:38:15.426Z,3.00
2019-01-30T10:40:43.978Z,3.10
2019-01-30T10:43:12.510Z,3.10
2019-01-30T10:45:41.355Z,3.10
2019-01-30T10:48:10.275Z,3.10
2019-01-30T10:50:38.892Z,3.10
2019-01-30T10:53:07.767Z,3.10
2019-01-30T10:55:37.068Z,3.20
2019-01-30T10:58:08.743Z,3.20
2019-01-30T11:00:40.726Z,3.30
2019-01-30T11:03:09.624Z,3.40
2019-01-30T11:05:38.453Z,3.40
2019-01-30T11:08:08.862Z,3.30
2019-01-30T11:10:39.338Z,3.30
2019-01-30T11:13:08.343Z,3.20
2019-01-30T11:15:37.222Z,3.30
2019-01-30T11:18:08.906Z,3.40
2019-01-30T11:20:38.421Z,3.30
2019-01-30T11:23:07.320Z,3.30
2019-01-30T11:25:41.382Z,3.40
2019-01-30T11:28:10.182Z,3.50
2019-01-30T11:30:38.900Z,3.50
2019-01-30T11:33:07.488Z,3.50
2019-01-30T11:35:36.367Z,3.50
2019-01-30T11:38:05.720Z,3.50
2019-01-30T11:40:34.350Z,3.50
2019-01-30T11:43:03.091Z,3.50
2019-01-30T11:45:34.217Z,3.50
2019-01-30T11:48:03.013Z,3.60
2019-01-30T11:50:31.622Z,3.60
2019-01-30T11:53:00.132Z,3.60
2019-01-30T11:55:29.034Z,3.60
2019-01-30T11:57:57.894Z,3.60
2019-01-30T12:00:33.131Z,3.60
2019-01-30T12:03:02.133Z,3.50
2019-01-30T12:05:30.743Z,3.60
2019-01-30T12:07:59.368Z,3.60
2019-01-30T12:10:28.195Z,3.60
2019-01-30T12:12:56.706Z,3.60
2019-01-30T12:15:38.586Z,3.60
2019-01-30T12:18:07.642Z,3.60
2019-01-30T12:20:36.535Z,3.60
2019-01-30T12:23:06.092Z,3.60
2019-01-30T12:25:35.021Z,3.60
2019-01-30T12:28:03.662Z,3.60
2019-01-30T12:30:32.509Z,3.70
2019-01-30T12:33:01.109Z,3.70
2019-01-30T12:35:32.923Z,3.70
2019-01-30T12:38:01.612Z,3.70
2019-01-30T12:40:30.672Z,3.70
2019-01-30T12:43:00.562Z,3.60
2019-01-30T12:45:31.255Z,3.50
2019-01-30T12:48:00.260Z,3.40
2019-01-30T12:50:29.715Z,3.40
2019-01-30T12:52:58.207Z,3.30
2019-01-30T12:55:29.322Z,3.20
2019-01-30T12:57:57.355Z,3.20
2019-01-30T13:00:28.713Z,3.20
2019-01-30T13:02:57.494Z,3.20
2019-01-30T13:05:26.843Z,3.20
2019-01-30T13:07:55.734Z,3.20
2019-01-30T13:10:24.339Z,3.20
2019-01-30T13:12:53.367Z,3.10
2019-01-30T13:15:27.476Z,3.20
2019-01-30T13:17:57.309Z,3.20
2019-01-30T13:20:25.923Z,3.10
2019-01-30T13:22:55.139Z,3.10
2019-01-30T13:25:31.397Z,3.10
2019-01-30T13:28:02.293Z,3.00
2019-01-30T13:30:35.817Z,3.00
2019-01-30T13:33:06.501Z,3.00
2019-01-30T13:35:35.113Z,3.00
2019-01-30T13:38:03.955Z,3.00
2019-01-30T13:40:34.840Z,3.00
2019-01-30T13:43:04.228Z,3.00
2019-01-30T13:45:32.767Z,3.00
2019-01-30T13:48:01.448Z,2.90
2019-01-30T13:50:30.918Z,2.90
2019-01-30T13:52:59.696Z,2.90
2019-01-30T13:55:28.415Z,2.80
2019-01-30T13:57:57.025Z,2.80
2019-01-30T14:00:28.281Z,2.80
2019-01-30T14:02:57.045Z,2.80
2019-01-30T14:05:25.501Z,2.80
2019-01-30T14:07:54.706Z,2.80
2019-01-30T14:10:23.323Z,2.80
2019-01-30T14:12:52.137Z,2.70
2019-01-30T14:15:23.632Z,2.70
2019-01-30T14:18:10.214Z,2.70
2019-01-30T14:20:38.753Z,2.70
2019-01-30T14:23:07.910Z,2.70
2019-01-30T14:25:36.718Z,2.70
2019-01-30T14:28:05.499Z,2.70
2019-01-30T14:30:35.842Z,2.70
2019-01-30T14:33:04.753Z,2.60
2019-01-30T14:35:34.914Z,2.70
2019-01-30T14:38:03.865Z,2.70
2019-01-30T14:40:32.708Z,2.70
2019-01-30T14:43:01.300Z,2.70
2019-01-30T14:45:35.996Z,2.70
2019-01-30T14:48:05.070Z,2.70
2019-01-30T14:50:33.672Z,2.70
2019-01-30T14:53:02.225Z,2.70
2019-01-30T14:55:30.838Z,2.70
2019-01-30T14:58:00.514Z,2.70
2019-01-30T15:00:35.841Z,2.70
2019-01-30T15:03:06.512Z,2.70
2019-01-30T15:05:37.143Z,2.70
2019-01-30T15:08:06.157Z,2.70
2019-01-30T15:10:35.530Z,2.80
2019-01-30T15:13:04.899Z,2.70
2019-01-30T15:15:33.446Z,2.70
2019-01-30T15:18:02.374Z,2.70
2019-01-30T15:20:33.365Z,2.70
2019-01-30T15:23:02.637Z,2.70
2019-01-30T15:25:31.835Z,2.60
2019-01-30T15:28:00.732Z,2.60
2019-01-30T15:30:38.072Z,2.50
2019-01-30T15:33:07.378Z,2.50
2019-01-30T15:35:36.307Z,2.40
2019-01-30T15:38:07.994Z,2.40
2019-01-30T15:40:36.481Z,2.40
2019-01-30T15:43:07.886Z,2.30
2019-01-30T15:45:37.367Z,2.30
2019-01-30T15:48:07.590Z,2.30
2019-01-30T15:50:39.161Z,2.20
2019-01-30T15:53:10.702Z,2.30
2019-01-30T15:55:39.693Z,2.20
2019-01-30T15:58:10.559Z,2.20
2019-01-30T16:00:47.786Z,2.20
2019-01-30T16:03:17.234Z,2.10
2019-01-30T16:05:45.844Z,2.10
2019-01-30T16:08:15.357Z,2.10
2019-01-30T16:10:51.268Z,2.10
2019-01-30T16:13:21.711Z,2.10
2019-01-30T16:15:53.833Z,2.10
2019-01-30T16:21:13.004Z,2.00
2019-01-30T16:24:31.186Z,2.00
2019-01-30T16:27:00.062Z,2.00
2019-01-30T16:29:28.512Z,1.90
2019-01-30T16:31:56.998Z,1.90
2019-01-30T16:34:37.755Z,1.90
2019-01-30T16:37:19.786Z,1.90
2019-01-30T16:39:59.015Z,1.90
2019-01-30T16:42:35.173Z,1.90
2019-01-30T16:45:07.226Z,1.90
2019-01-30T16:47:37.475Z,1.80
2019-01-30T16:50:09.567Z,1.90
2019-01-30T16:52:38.380Z,1.80
2019-01-30T16:55:09.458Z,1.80
2019-01-30T16:57:40.239Z,1.90
2019-01-30T17:00:20.465Z,1.80
2019-01-30T17:02:48.954Z,1.80
2019-01-30T17:05:18.882Z,1.80
2019-01-30T17:07:47.458Z,1.80
2019-01-30T17:10:18.128Z,1.80
2019-01-30T17:12:48.158Z,1.80
2019-01-30T17:15:20.007Z,1.70
2019-01-30T17:17:51.862Z,1.70
2019-01-30T17:20:25.701Z,1.70
2019-01-30T17:22:55.166Z,1.70
2019-01-30T17:25:25.506Z,1.70
2019-01-30T17:27:54.073Z,1.60
2019-01-30T17:30:31.318Z,1.60
2019-01-30T17:33:01.492Z,1.60
2019-01-30T17:35:30.293Z,1.50
2019-01-30T17:38:00.036Z,1.50
2019-01-30T17:40:29.800Z,1.50
2019-01-30T17:43:00.000Z,1.50
2019-01-30T17:45:29.986Z,1.50
2019-01-30T17:48:09.938Z,1.50
2019-01-30T17:50:38.542Z,1.50
2019-01-30T17:53:07.005Z,1.50
2019-01-30T17:55:35.548Z,1.50
2019-01-30T17:58:04.398Z,1.40
2019-01-30T18:00:46.904Z,1.50
2019-01-30T18:03:15.722Z,1.50
2019-01-30T18:05:44.909Z,1.40
2019-01-30T18:08:13.791Z,1.40
2019-01-30T18:10:42.643Z,1.40
2019-01-30T18:13:11.094Z,1.40
2019-01-30T18:15:39.640Z,1.50
2019-01-30T18:18:12.445Z,1.40
2019-01-30T18:20:41.429Z,1.40
2019-01-30T18:23:10.039Z,1.40
2019-01-30T18:25:38.578Z,1.40
2019-01-30T18:28:09.924Z,1.40
2019-01-30T18:30:38.381Z,1.40
2019-01-30T18:33:06.895Z,1.40
2019-01-30T18:35:35.724Z,1.50
2019-01-30T18:38:04.876Z,1.50
2019-01-30T18:40:33.591Z,1.50
2019-01-30T18:43:02.296Z,1.50
2019-01-30T18:45:30.793Z,1.50
2019-01-30T18:47:59.533Z,1.50
2019-01-30T18:50:29.212Z,1.50
2019-01-30T18:52:58.200Z,1.50
2019-01-30T18:55:27.001Z,1.50
2019-01-30T18:57:55.891Z,1.50
2019-01-30T19:00:29.408Z,1.50
2019-01-30T19:02:59.417Z,1.50
2019-01-30T19:05:29.641Z,1.50
2019-01-30T19:07:58.543Z,1.60
2019-01-30T19:10:27.029Z,1.60
2019-01-30T19:12:55.884Z,1.60
2019-01-30T19:15:29.654Z,1.60
2019-01-30T19:17:58.491Z,1.60
2019-01-30T19:20:36.133Z,1.60
2019-01-30T19:23:06.855Z,1.60
2019-01-30T19:25:35.142Z,1.50
2019-01-30T19:28:05.618Z,1.50
2019-01-30T19:30:34.210Z,1.50
2019-01-30T19:33:04.773Z,1.50
2019-01-30T19:35:33.517Z,1.50
2019-01-30T19:38:01.968Z,1.50
2019-01-30T19:40:30.504Z,1.50
2019-01-30T19:42:59.271Z,1.60
2019-01-30T19:45:28.369Z,1.60
2019-01-30T19:47:57.845Z,1.60
2019-01-30T19:50:28.922Z,1.60
2019-01-30T19:52:57.778Z,1.60
2019-01-30T19:55:26.550Z,1.60
2019-01-30T19:57:55.973Z,1.50
2019-01-30T20:00:30.061Z,1.50
2019-01-30T20:02:59.429Z,1.50
2019-01-30T20:05:28.043Z,1.50
2019-01-30T20:07:56.569Z,1.50
2019-01-30T20:10:27.932Z,1.40
2019-01-30T20:12:56.660Z,1.40
2019-01-30T20:15:25.651Z,1.30
2019-01-30T20:17:54.440Z,1.30
2019-01-30T20:20:23.061Z,1.30
2019-01-30T20:22:51.963Z,1.30
2019-01-30T20:25:26.245Z,1.30
2019-01-30T20:27:54.707Z,1.20
2019-01-30T20:30:24.636Z,1.20
2019-01-30T20:32:53.572Z,1.20
2019-01-30T20:35:22.605Z,1.20
2019-01-30T20:37:52.938Z,1.20
2019-01-30T20:40:30.389Z,1.20
2019-01-30T20:43:01.877Z,1.20
2019-01-30T20:45:33.782Z,1.20
2019-01-30T20:48:01.103Z,1.10
2019-01-30T20:50:31.709Z,1.10
2019-01-30T20:53:00.565Z,1.10
2019-01-30T20:55:29.453Z,1.10
2019-01-30T20:57:57.978Z,1.10
2019-01-30T21:00:35.085Z,1.10
2019-01-30T21:03:05.888Z,1.10
2019-01-30T21:05:36.297Z,1.10
2019-01-30T21:08:08.005Z,1.00
2019-01-30T21:10:40.581Z,1.00
2019-01-30T21:13:11.112Z,1.00
2019-01-30T21:15:39.868Z,1.00
2019-01-30T21:18:08.719Z,0.90
2019-01-30T21:20:37.513Z,0.90
2019-01-30T21:23:06.660Z,0.90
2019-01-30T21:25:35.173Z,0.90
2019-01-30T21:28:05.720Z,0.90
2019-01-30T21:30:38.865Z,0.90
2019-01-30T21:33:07.368Z,0.90
2019-01-30T21:35:37.720Z,0.80
2019-01-30T21:38:09.378Z,0.80
2019-01-30T21:40:41.520Z,0.80
2019-01-30T21:43:13.662Z,0.80
2019-01-30T21:45:42.203Z,0.80
2019-01-30T21:48:13.680Z,0.70
2019-01-30T21:50:43.882Z,0.70
2019-01-30T21:53:12.898Z,0.70
2019-01-30T21:55:45.949Z,0.70
2019-01-30T21:58:14.722Z,0.60
2019-01-30T22:00:47.761Z,0.60
2019-01-30T22:03:16.386Z,0.60
2019-01-30T22:05:45.514Z,0.50
2019-01-30T22:08:15.153Z,0.60
2019-01-30T22:10:44.197Z,0.50
2019-01-30T22:13:12.891Z,0.50
2019-01-30T22:15:41.349Z,0.40
2019-01-30T22:18:11.982Z,0.50
2019-01-30T22:20:40.494Z,0.40
2019-01-30T22:23:09.212Z,0.40
2019-01-30T22:25:38.140Z,0.40
2019-01-30T22:28:06.624Z,0.40
2019-01-30T22:30:35.747Z,0.30
2019-01-30T22:33:04.642Z,0.30
2019-01-30T22:35:33.088Z,0.30
2019-01-30T22:38:12.132Z,0.20
2019-01-30T22:40:33.437Z,0.20
2019-01-30T22:43:03.821Z,0.20
2019-01-30T22:45:32.367Z,0.20
2019-01-30T22:48:01.010Z,0.20
2019-01-30T22:50:30.040Z,0.20
2019-01-30T22:52:59.643Z,0.10
2019-01-30T22:55:28.116Z,0.10
2019-01-30T22:57:56.884Z,0.10
2019-01-30T23:01:01.396Z,0.10
2019-01-30T23:03:35.807Z,0.00
2019-01-30T23:06:19.264Z,0.00
2019-01-30T23:09:10.894Z,0.00
2019-01-30T23:12:05.141Z,0.00
2019-01-30T23:14:37.428Z,-0.10
2019-01-30T23:17:27.173Z,-0.10
2019-01-30T23:20:00.678Z,-0.10
2019-01-30T23:22:47.574Z,-0.10
2019-01-30T23:25:34.198Z,-0.20
2019-01-30T23:28:05.760Z,-0.20
2019-01-30T23:30:55.846Z,-0.20
2019-01-30T23:33:30.531Z,-0.20
2019-01-30T23:36:22.912Z,-0.20
2019-01-30T23:39:04.665Z,-0.20
2019-01-30T23:41:37.114Z,-0.20
2019-01-30T23:44:26.898Z,-0.30
2019-01-30T23:47:13.753Z,-0.30
2019-01-30T23:49:51.953Z,-0.30
2019-01-30T23:52:32.459Z,-0.30
2019-01-30T23:55:19.139Z,-0.30
2019-01-30T23:58:02.816Z,-0.40
